Time;durP1;ratioP1;P1;durP2;ratioP2;P2;SDS_P1;SDS_P2;PMS_P1;PMS_P2;Temp;Humidity;BMP_temperature;BMP_pressure;BME280_temperature;BME280_humidity;BME280_pressure;Samples;Min_cycle;Max_cycle;Signal;HPM_P1;HPM_P2
2023/06/28 00:01:30;;;;;;;8.25;7.60;;;;;;;-144.30;67.26;84255.53;5051452;28;20259;-78
2023/06/28 00:03:58;;;;;;;8.20;7.40;;;;;;;-144.30;66.92;84187.97;5051160;28;20196;-79
2023/06/28 00:06:25;;;;;;;8.48;7.53;;;;;;;-144.30;67.33;84259.50;5054175;28;20219;-77
2023/06/28 00:08:52;;;;;;;7.70;7.00;;;;;;;-144.30;67.94;84273.44;5055075;28;20227;-79
2023/06/28 00:11:19;;;;;;;7.78;7.07;;;;;;;-144.30;68.49;84297.28;5054231;28;20235;-79
2023/06/28 00:13:46;;;;;;;7.50;6.90;;;;;;;-144.30;68.16;84253.56;5055460;28;20197;-80
2023/06/28 00:16:14;;;;;;;12.07;7.65;;;;;;;-144.30;67.69;84279.38;5056384;28;20219;-80
2023/06/28 00:18:43;;;;;;;9.95;6.50;;;;;;;-144.30;66.56;84263.50;5056055;28;20338;-79
2023/06/28 00:21:13;;;;;;;7.28;6.68;;;;;;;-144.30;65.40;84321.13;5055200;28;20364;-78
2023/06/28 00:23:40;;;;;;;7.95;7.20;;;;;;;-144.30;65.22;84307.22;5055301;28;20630;-79
2023/06/28 00:26:07;;;;;;;7.00;6.40;;;;;;;-144.30;65.08;84279.38;5054441;28;20250;-79
2023/06/28 00:28:34;;;;;;;6.63;6.13;;;;;;;-144.30;64.13;84303.25;5054140;28;20224;-78
2023/06/28 00:31:02;;;;;;;6.47;5.82;;;;;;;-144.30;63.72;84291.31;5054430;28;20664;-77
2023/06/28 00:33:29;;;;;;;6.43;6.00;;;;;;;-144.30;63.43;84261.50;5053686;28;20201;-77
2023/06/28 00:35:55;;;;;;;6.18;5.70;;;;;;;-144.30;63.51;84283.38;5053287;28;20192;-78
2023/06/28 00:38:24;;;;;;;6.28;5.68;;;;;;;-144.30;63.05;84309.19;5053397;28;20196;-78
2023/06/28 00:40:51;;;;;;;5.88;5.38;;;;;;;-144.30;62.41;84303.25;5053811;28;20205;-78
2023/06/28 00:43:17;;;;;;;8.25;6.28;;;;;;;-144.30;61.76;84283.38;5053805;28;20580;-78
2023/06/28 00:45:44;;;;;;;6.47;5.88;;;;;;;-144.30;61.46;84287.34;5055382;28;20192;-78
2023/06/28 00:48:13;;;;;;;5.93;5.43;;;;;;;-144.30;61.30;84267.47;5054340;28;20312;-78
2023/06/28 00:50:40;;;;;;;7.13;5.82;;;;;;;-144.30;61.38;84247.59;5054143;28;20203;-78
2023/06/28 00:53:08;;;;;;;6.15;5.32;;;;;;;-144.30;62.20;84339.00;5053932;28;20600;-78
2023/06/28 00:55:36;;;;;;;6.55;5.53;;;;;;;-144.30;62.37;84321.13;5054666;28;20199;-79
2023/06/28 00:58:03;;;;;;;5.97;5.38;;;;;;;-144.30;61.93;84323.13;5054981;28;20187;-78
2023/06/28 01:00:30;;;;;;;5.90;5.40;;;;;;;-144.30;61.27;84295.28;5054588;28;20196;-78
2023/06/28 01:02:57;;;;;;;7.18;6.22;;;;;;;-144.30;60.64;84275.41;5053856;28;20300;-78
2023/06/28 01:05:24;;;;;;;5.57;5.20;;;;;;;-144.30;59.83;84289.31;5054987;28;20196;-78
2023/06/28 01:07:54;;;;;;;5.43;4.95;;;;;;;-144.30;59.72;84195.94;5054202;28;20227;-78
2023/06/28 01:10:22;;;;;;;5.50;5.00;;;;;;;-144.30;59.70;84301.25;5054914;28;20196;-75
2023/06/28 01:12:51;;;;;;;5.72;5.32;;;;;;;-144.30;59.59;84325.09;5052500;28;20287;-75
2023/06/28 01:15:18;;;;;;;5.95;5.43;;;;;;;-144.30;60.18;84271.44;5052705;28;20197;-75
2023/06/28 01:17:45;;;;;;;5.57;5.10;;;;;;;-144.30;60.31;84339.00;5051499;28;20212;-75
2023/06/28 01:20:12;;;;;;;5.90;5.55;;;;;;;-144.30;60.38;84319.13;5051771;28;20200;-75
2023/06/28 01:22:41;;;;;;;5.90;5.40;;;;;;;-144.30;61.07;84384.72;5052244;28;20199;-75
2023/06/28 01:25:10;;;;;;;7.65;5.35;;;;;;;-144.30;61.97;84366.84;5051693;28;20197;-74
2023/06/28 01:27:44;;;;;;;6.35;4.90;;;;;;;-144.30;62.34;84356.91;5051606;28;20606;-75
2023/06/28 01:30:14;;;;;;;7.57;5.95;;;;;;;-144.30;62.42;84339.00;5051888;28;20204;-75
2023/06/28 01:32:42;;;;;;;6.18;5.70;;;;;;;-144.30;62.54;84390.69;5052214;28;20310;-75
2023/06/28 01:35:10;;;;;;;6.38;5.93;;;;;;;-144.30;62.90;84410.56;5053041;28;20196;-76
2023/06/28 01:37:39;;;;;;;7.22;6.32;;;;;;;-144.30;63.58;84408.56;5051845;28;20199;-75
2023/06/28 01:40:09;;;;;;;7.32;6.30;;;;;;;-144.30;63.94;84434.41;5051730;28;20589;-74
2023/06/28 01:42:39;;;;;;;11.25;6.22;;;;;;;-144.30;63.70;84420.50;5051368;28;20673;-75
2023/06/28 01:45:07;;;;;;;7.35;6.70;;;;;;;-144.30;63.29;84406.59;5051025;28;20204;-75
2023/06/28 01:47:34;;;;;;;13.60;6.75;;;;;;;-144.30;63.87;84438.38;5051507;28;20247;-75
2023/06/28 01:50:01;;;;;;;6.55;6.10;;;;;;;-144.30;64.11;84398.63;5051119;28;20200;-73
2023/06/28 01:52:28;;;;;;;8.15;6.53;;;;;;;-144.30;64.72;84438.38;5051412;28;20205;-74
2023/06/28 01:54:55;;;;;;;7.40;6.75;;;;;;;-144.30;64.73;84374.78;5051738;28;20676;-74
2023/06/28 01:57:22;;;;;;;11.65;6.97;;;;;;;-144.30;64.93;84303.25;5051889;28;20230;-75
2023/06/28 01:59:50;;;;;;;9.00;8.13;;;;;;;-144.30;65.52;84426.47;5052605;28;20196;-79
2023/06/28 02:02:17;;;;;;;10.20;8.45;;;;;;;-144.30;65.77;84420.50;5053634;28;20657;-78
2023/06/28 02:04:44;;;;;;;9.93;8.98;;;;;;;-144.30;66.73;84428.44;5052813;28;20209;-79
2023/06/28 02:07:12;;;;;;;10.20;9.27;;;;;;;-144.30;67.23;84486.06;5053068;28;20609;-78
2023/06/28 02:09:38;;;;;;;12.15;8.68;;;;;;;-144.30;67.27;84434.41;5052953;28;20279;-77
2023/06/28 02:12:06;;;;;;;9.48;8.57;;;;;;;-144.30;67.32;84442.34;5053120;28;20315;-78
2023/06/28 02:14:33;;;;;;;9.35;8.00;;;;;;;-144.30;67.07;84446.31;5052868;28;20385;-79
2023/06/28 02:17:01;;;;;;;9.13;8.30;;;;;;;-144.30;67.60;84448.31;5052387;28;20201;-75
2023/06/28 02:19:33;;;;;;;9.68;8.48;;;;;;;-144.30;68.61;84358.88;5051657;28;20189;-75
2023/06/28 02:22:00;;;;;;;8.45;7.80;;;;;;;-144.30;68.96;84468.19;5050800;28;20196;-75
2023/06/28 02:24:26;;;;;;;11.52;8.65;;;;;;;-144.30;69.39;84474.16;5050612;28;20243;-74
2023/06/28 02:26:53;;;;;;;8.68;7.78;;;;;;;-144.30;69.87;84442.34;5050630;28;20200;-74
2023/06/28 02:29:20;;;;;;;8.18;7.55;;;;;;;-144.30;70.83;84490.06;5049945;28;20220;-75
2023/06/28 02:31:47;;;;;;;10.15;7.70;;;;;;;-144.30;72.18;84609.31;5051265;28;20536;-75
2023/06/28 02:34:16;;;;;;;8.82;8.13;;;;;;;-144.30;72.81;84551.66;5050596;28;20208;-74
2023/06/28 02:36:42;;;;;;;8.68;7.43;;;;;;;-144.30;72.61;84541.72;5051107;28;20740;-74
2023/06/28 02:39:09;;;;;;;8.18;7.57;;;;;;;-144.30;72.44;84561.59;5050943;28;20195;-74
2023/06/28 02:41:36;;;;;;;8.50;7.80;;;;;;;-144.30;72.25;84545.69;5050929;28;20205;-75
2023/06/28 02:44:03;;;;;;;15.43;7.15;;;;;;;-144.30;72.46;84891.53;5050845;28;20291;-75
2023/06/28 02:46:30;;;;;;;8.55;7.95;;;;;;;-144.30;72.49;84553.66;5050790;28;20196;-75
2023/06/28 02:48:57;;;;;;;8.68;7.78;;;;;;;-144.30;73.00;84533.78;5050435;28;20236;-74
2023/06/28 02:51:26;;;;;;;9.68;7.80;;;;;;;-144.30;73.34;84505.94;5050948;28;20255;-75
2023/06/28 02:53:53;;;;;;;8.00;7.35;;;;;;;-144.30;74.04;84593.41;5050741;28;20589;-75
2023/06/28 02:56:19;;;;;;;9.15;7.97;;;;;;;-144.30;74.04;84575.50;5050503;28;20205;-74
2023/06/28 02:58:46;;;;;;;8.18;7.63;;;;;;;-144.30;73.90;84529.81;5051044;28;20597;-74
2023/06/28 03:01:14;;;;;;;8.40;7.60;;;;;;;-144.30;73.75;84577.50;5050170;28;20212;-74
2023/06/28 03:03:41;;;;;;;7.68;6.95;;;;;;;-144.30;73.22;84537.75;5050099;28;20196;-75
2023/06/28 03:06:08;;;;;;;8.68;7.88;;;;;;;-144.30;72.71;84585.44;5049755;28;20196;-74
2023/06/28 03:08:36;;;;;;;8.20;7.47;;;;;;;-144.30;70.75;84581.47;5049871;28;20278;-74
2023/06/28 03:11:03;;;;;;;7.28;6.85;;;;;;;-144.30;70.18;84587.44;5049697;28;20614;-75
2023/06/28 03:13:30;;;;;;;7.60;7.00;;;;;;;-144.30;70.00;84553.66;5050110;28;20283;-74
2023/06/28 03:15:57;;;;;;;7.78;7.18;;;;;;;-144.30;69.62;84579.50;5049859;28;20665;-75
2023/06/28 03:18:24;;;;;;;7.50;7.00;;;;;;;-144.30;69.36;84583.47;5050518;28;20195;-75
2023/06/28 03:20:51;;;;;;;10.30;7.57;;;;;;;-144.30;69.54;84458.25;5050045;28;20696;-75
2023/06/28 03:23:18;;;;;;;10.65;7.43;;;;;;;-144.30;69.31;84847.81;5050166;28;20204;-75
2023/06/28 03:25:46;;;;;;;9.15;7.93;;;;;;;-144.30;68.27;84577.50;5049887;28;20208;-76
2023/06/28 03:28:13;;;;;;;8.25;7.47;;;;;;;-144.30;67.73;84509.94;5049274;28;20228;-75
2023/06/28 03:30:40;;;;;;;8.27;7.57;;;;;;;-144.30;67.54;84541.72;5049694;28;20196;-75
2023/06/28 03:33:07;;;;;;;7.30;6.70;;;;;;;-144.30;67.60;84551.66;5050602;28;20684;-78
2023/06/28 03:35:34;;;;;;;8.50;7.78;;;;;;;-144.30;67.17;84537.75;5050315;28;20227;-77
2023/06/28 03:38:01;;;;;;;12.05;7.80;;;;;;;-144.30;67.31;84501.97;5049884;28;20192;-78
2023/06/28 03:40:28;;;;;;;9.57;7.57;;;;;;;-144.30;67.33;84509.94;5049846;28;20200;-78
2023/06/28 03:42:56;;;;;;;8.45;7.70;;;;;;;-144.30;67.43;84386.72;5051354;28;20211;-78
2023/06/28 03:45:23;;;;;;;7.95;7.35;;;;;;;-144.30;66.92;84501.97;5052306;28;20638;-77
2023/06/28 03:47:51;;;;;;;8.55;7.55;;;;;;;-144.30;66.51;84478.13;5051857;28;20231;-78
2023/06/28 03:50:18;;;;;;;8.40;7.75;;;;;;;-144.30;66.61;84519.88;5050815;28;20283;-78
2023/06/28 03:52:45;;;;;;;8.25;7.65;;;;;;;-144.30;65.52;84446.31;5052264;28;20200;-78
2023/06/28 03:55:12;;;;;;;8.43;7.57;;;;;;;-144.30;64.33;84410.56;5051063;28;20201;-75
2023/06/28 03:57:38;;;;;;;12.10;8.07;;;;;;;-144.30;62.95;84430.44;5049996;28;20203;-74
2023/06/28 04:00:10;;;;;;;8.73;7.93;;;;;;;-144.30;62.42;84404.59;5050288;28;20574;-74
2023/06/28 04:02:37;;;;;;;9.02;7.45;;;;;;;-144.30;61.69;84372.78;5050400;28;20275;-74
2023/06/28 04:05:05;;;;;;;9.00;8.20;;;;;;;-144.30;61.53;84273.44;5050022;28;20211;-75
2023/06/28 04:07:32;;;;;;;8.30;7.60;;;;;;;-144.30;61.71;84350.94;5049908;28;20200;-75
2023/06/28 04:10:01;;;;;;;8.73;8.13;;;;;;;-144.30;61.91;84414.53;5049993;28;20583;-75
2023/06/28 04:12:28;;;;;;;9.05;8.25;;;;;;;-144.30;61.42;84370.81;5049921;28;20321;-74
2023/06/28 04:14:54;;;;;;;8.85;7.72;;;;;;;-144.30;60.82;84331.06;5049317;28;20205;-75
2023/06/28 04:17:23;;;;;;;11.68;7.80;;;;;;;-144.30;58.45;84184.00;5049457;28;20205;-74
2023/06/28 04:19:50;;;;;;;7.88;7.38;;;;;;;-144.30;55.06;84040.91;5050173;28;20195;-75
2023/06/28 04:22:16;;;;;;;8.93;7.28;;;;;;;-144.30;50.88;83824.31;5050968;28;20711;-75
2023/06/28 04:24:43;;;;;;;8.40;7.43;;;;;;;-144.30;47.49;83611.72;5050859;28;20781;-75
2023/06/28 04:27:10;;;;;;;8.48;7.63;;;;;;;-144.30;44.54;83389.19;5050847;28;20200;-75
2023/06/28 04:29:37;;;;;;;8.20;7.35;;;;;;;-144.30;42.47;83226.28;5051400;28;20220;-76
2023/06/28 04:32:20;;;;;;;7.35;6.72;;;;;;;-144.30;40.04;82979.94;5050357;28;20208;-75
2023/06/28 04:34:49;;;;;;;14.65;7.57;;;;;;;-144.30;38.82;82763.41;5050724;28;20242;-75
2023/06/28 04:37:18;;;;;;;11.43;7.75;;;;;;;-144.30;36.90;82527.03;5050848;28;20771;-75
2023/06/28 04:39:45;;;;;;;8.73;7.10;;;;;;;-144.30;35.83;82403.91;5051559;28;20196;-75
2023/06/28 04:42:14;;;;;;;8.23;7.30;;;;;;;-144.30;35.55;82401.91;5051692;28;20216;-75
2023/06/28 04:44:43;;;;;;;9.75;6.97;;;;;;;-144.30;36.99;83115.03;5053607;28;20200;-75
2023/06/28 04:47:15;;;;;;;8.05;7.20;;;;;;;-144.30;38.15;82926.31;5051014;28;20201;-75
2023/06/28 04:49:42;;;;;;;8.45;7.75;;;;;;;-144.30;39.97;83126.94;5050492;28;20220;-74
2023/06/28 04:52:12;;;;;;;12.93;7.75;;;;;;;-144.30;41.44;83295.81;5051202;28;20192;-75
2023/06/28 04:54:39;;;;;;;7.63;7.07;;;;;;;-144.30;43.44;83484.56;5054388;28;20189;-74
2023/06/28 04:57:06;;;;;;;8.50;7.90;;;;;;;-144.30;44.38;83583.91;5054956;28;20212;-78
2023/06/28 04:59:33;;;;;;;8.25;7.32;;;;;;;-144.30;45.92;84344.97;5055173;28;20204;-78
2023/06/28 05:02:03;;;;;;;9.30;7.35;;;;;;;-144.30;47.23;83738.88;5054154;28;20697;-79
2023/06/28 05:04:31;;;;;;;8.05;7.25;;;;;;;-144.30;47.84;83941.56;5054785;28;20256;-78
2023/06/28 05:06:58;;;;;;;9.25;7.85;;;;;;;-144.30;48.16;83738.88;5054552;28;20270;-77
2023/06/28 05:09:26;;;;;;;8.40;7.57;;;;;;;-144.30;47.01;83653.44;5054875;28;20700;-79
2023/06/28 05:11:53;;;;;;;10.85;7.43;;;;;;;-144.30;45.09;83500.47;5054793;28;20740;-79
2023/06/28 05:14:20;;;;;;;8.95;8.05;;;;;;;-144.30;43.21;83270.00;5054984;28;20295;-80
2023/06/28 05:16:46;;;;;;;8.55;7.63;;;;;;;-144.30;40.23;82999.81;5054809;28;20215;-78
2023/06/28 05:19:13;;;;;;;8.32;7.50;;;;;;;-144.30;38.34;82777.31;5055303;28;20205;-79
2023/06/28 05:21:40;;;;;;;8.27;7.70;;;;;;;-144.30;36.90;82483.34;5055128;28;20586;-77
2023/06/28 05:24:10;;;;;;;7.28;6.75;;;;;;;-144.30;35.22;82286.72;5055548;28;20208;-78
2023/06/28 05:26:38;;;;;;;7.30;6.55;;;;;;;-144.30;34.45;82104.00;5054851;28;20288;-79
2023/06/28 05:29:05;;;;;;;9.00;6.35;;;;;;;-144.30;33.66;81959.00;5053480;28;20885;-78
2023/06/28 05:31:32;;;;;;;7.65;6.78;;;;;;;-144.30;32.66;81734.59;5055051;28;20196;-79
2023/06/28 05:33:59;;;;;;;7.80;7.20;;;;;;;-144.30;32.65;81780.28;5054589;28;20219;-79
2023/06/28 05:36:26;;;;;;;11.98;8.23;;;;;;;-144.30;32.37;81694.88;5054156;28;20204;-78
2023/06/28 05:38:53;;;;;;;8.40;7.72;;;;;;;-144.30;31.86;81575.75;5054609;28;20282;-76
2023/06/28 05:41:20;;;;;;;13.32;9.68;;;;;;;-144.30;32.00;81655.19;5053618;28;20197;-77
2023/06/28 05:43:48;;;;;;;13.55;7.72;;;;;;;-144.30;31.83;81516.16;5054433;28;20222;-76
2023/06/28 05:46:16;;;;;;;15.55;9.63;;;;;;;-144.30;31.52;81506.25;5052991;28;20200;-77
2023/06/28 05:48:43;;;;;;;12.05;10.88;;;;;;;-144.30;30.67;81347.38;5052768;28;20289;-76
2023/06/28 05:51:12;;;;;;;14.00;12.55;;;;;;;-144.30;30.29;81371.22;5053403;28;20261;-75
2023/06/28 05:53:40;;;;;;;18.95;10.70;;;;;;;-144.30;30.40;81188.53;5053456;28;20582;-75
2023/06/28 05:56:07;;;;;;;13.20;7.90;;;;;;;-144.30;30.03;81182.59;5052619;28;20192;-77
2023/06/28 05:58:34;;;;;;;10.60;9.10;;;;;;;-144.30;29.54;81103.16;5053705;28;20200;-76
2023/06/28 06:01:02;;;;;;;7.70;7.07;;;;;;;-144.30;29.07;80862.94;5053185;28;20588;-75
2023/06/28 06:03:30;;;;;;;13.23;7.28;;;;;;;-144.30;29.22;81019.78;5053964;28;20203;-79
2023/06/28 06:05:57;;;;;;;11.55;7.00;;;;;;;-144.30;29.09;81037.66;5053560;28;20294;-78
2023/06/28 06:08:24;;;;;;;9.77;8.80;;;;;;;-144.30;29.14;80999.94;5054540;28;20200;-79
2023/06/28 06:10:51;;;;;;;15.32;11.23;;;;;;;-144.30;28.72;80779.56;5054040;28;20236;-80
2023/06/28 06:13:18;;;;;;;10.43;9.52;;;;;;;-144.30;28.20;80632.66;5053797;28;20200;-79
2023/06/28 06:15:45;;;;;;;7.05;6.45;;;;;;;-144.30;28.08;80704.13;5054154;28;20222;-77
2023/06/28 06:18:13;;;;;;;11.27;8.52;;;;;;;-144.30;27.96;80652.50;5052999;28;20192;-80
2023/06/28 06:20:40;;;;;;;6.13;5.82;;;;;;;-144.30;28.07;80710.06;5053055;28;20196;-80
2023/06/28 06:23:07;;;;;;;6.90;6.35;;;;;;;-144.30;28.08;80757.72;5053411;28;20196;-79
2023/06/28 06:25:34;;;;;;;8.55;6.10;;;;;;;-144.30;28.77;81027.72;5052936;28;20246;-79
2023/06/28 06:28:01;;;;;;;8.98;6.28;;;;;;;-144.30;28.87;80978.09;5052922;28;20215;-79
2023/06/28 06:30:29;;;;;;;9.98;8.95;;;;;;;-144.30;28.91;80962.19;5053436;28;20227;-78
2023/06/28 06:32:56;;;;;;;8.27;7.65;;;;;;;-144.30;29.12;81013.81;5053893;28;20200;-78
2023/06/28 06:35:26;;;;;;;7.57;7.03;;;;;;;-144.30;29.46;81192.50;5053322;28;20203;-79
2023/06/28 06:37:53;;;;;;;13.70;9.55;;;;;;;-144.30;29.65;81148.84;5054031;28;20179;-77
2023/06/28 06:40:20;;;;;;;16.50;15.05;;;;;;;-144.30;29.99;81269.94;5053327;28;20189;-79
2023/06/28 06:42:47;;;;;;;7.68;6.93;;;;;;;-144.30;29.75;81279.88;5052304;28;20196;-74
2023/06/28 06:45:17;;;;;;;19.85;16.35;;;;;;;-144.30;30.01;81375.19;5051151;28;20699;-76
2023/06/28 06:47:45;;;;;;;8.57;8.07;;;;;;;-144.30;29.92;81385.13;5052601;28;20210;-74
2023/06/28 06:50:13;;;;;;;11.68;7.55;;;;;;;-144.30;30.34;81371.22;5052103;28;20224;-77
2023/06/28 06:52:42;;;;;;;9.63;8.73;;;;;;;-144.30;30.26;81418.88;5051435;28;20192;-76
2023/06/28 06:55:09;;;;;;;8.60;7.93;;;;;;;-144.30;30.65;81534.03;5051282;28;20199;-75
2023/06/28 06:57:36;;;;;;;8.60;7.80;;;;;;;-144.30;30.60;81522.13;5051485;28;20195;-75
2023/06/28 07:00:05;;;;;;;9.95;9.07;;;;;;;-144.30;30.80;81526.09;5051434;28;20262;-75
2023/06/28 07:02:32;;;;;;;16.77;15.30;;;;;;;-144.30;30.67;81538.00;5051833;28;20204;-75
2023/06/28 07:04:58;;;;;;;13.65;12.43;;;;;;;-144.30;30.87;81528.09;5050954;28;20777;-75
2023/06/28 07:07:25;;;;;;;15.02;12.38;;;;;;;-144.30;31.08;81541.97;5051325;28;20208;-74
2023/06/28 07:09:54;;;;;;;14.23;12.80;;;;;;;-144.30;31.42;81619.44;5051298;28;20780;-75
2023/06/28 07:12:21;;;;;;;10.18;9.18;;;;;;;-144.30;31.14;81621.41;5050689;28;20247;-75
2023/06/28 07:14:49;;;;;;;9.55;8.73;;;;;;;-144.30;30.99;81925.25;5051986;28;20212;-75
2023/06/28 07:17:16;;;;;;;9.80;9.10;;;;;;;-144.30;30.49;81434.75;5051470;28;20757;-75
2023/06/28 07:19:42;;;;;;;10.32;9.43;;;;;;;-144.30;30.32;81466.53;5051706;28;20198;-74
2023/06/28 07:22:09;;;;;;;8.63;8.02;;;;;;;-144.30;30.33;81383.13;5051093;28;20184;-75
2023/06/28 07:24:36;;;;;;;11.10;10.07;;;;;;;-144.30;30.62;81474.47;5051120;28;20204;-75
2023/06/28 07:27:05;;;;;;;9.80;8.73;;;;;;;-144.30;30.45;81404.97;5049969;28;20203;-75
2023/06/28 07:29:33;;;;;;;8.98;8.32;;;;;;;-144.30;30.24;81442.69;5050494;28;20318;-74
2023/06/28 07:32:00;;;;;;;9.88;9.02;;;;;;;-144.30;30.42;81359.31;5049941;28;20283;-76
2023/06/28 07:34:27;;;;;;;9.43;8.57;;;;;;;-144.30;30.18;81260.03;5049950;28;20280;-75
2023/06/28 07:36:54;;;;;;;10.32;9.32;;;;;;;-144.30;30.17;81264.00;5049749;28;20586;-75
2023/06/28 07:39:21;;;;;;;9.80;9.00;;;;;;;-144.30;29.97;81265.97;5049602;28;20585;-75
2023/06/28 07:41:48;;;;;;;9.20;8.52;;;;;;;-144.30;29.59;81321.56;5050066;28;20218;-76
2023/06/28 07:44:16;;;;;;;9.77;8.98;;;;;;;-144.30;29.52;81299.72;5050042;28;20200;-74
2023/06/28 07:46:43;;;;;;;10.13;9.10;;;;;;;-144.30;29.54;81246.13;5050122;28;20203;-75
2023/06/28 07:49:10;;;;;;;10.85;9.40;;;;;;;-144.30;29.58;81228.25;5049832;28;20251;-75
2023/06/28 07:51:37;;;;;;;11.70;9.10;;;;;;;-144.30;29.59;81212.38;5049662;28;20291;-75
2023/06/28 07:54:04;;;;;;;9.70;9.00;;;;;;;-144.30;29.14;81260.03;5048720;28;20203;-75
2023/06/28 07:56:31;;;;;;;8.35;7.85;;;;;;;-144.30;29.79;81329.53;5049679;28;20208;-74
2023/06/28 07:59:01;;;;;;;8.95;8.10;;;;;;;-144.30;29.47;81264.00;5050002;28;20196;-75
2023/06/28 08:01:29;;;;;;;10.20;9.35;;;;;;;-144.30;30.16;81156.78;5049841;28;20265;-74
2023/06/28 08:03:56;;;;;;;10.00;9.15;;;;;;;-144.30;29.83;81158.75;5049689;28;20284;-74
2023/06/28 08:06:22;;;;;;;11.88;9.95;;;;;;;-144.30;30.00;81220.31;5049485;28;20645;-75
2023/06/28 08:08:50;;;;;;;10.35;9.13;;;;;;;-144.30;29.91;81313.63;5049488;28;20224;-75
2023/06/28 08:11:17;;;;;;;11.27;9.35;;;;;;;-144.30;29.93;81188.53;5049429;28;20231;-75
2023/06/28 08:13:44;;;;;;;9.93;8.82;;;;;;;-144.30;29.50;81079.34;5050208;28;20591;-75
2023/06/28 08:16:11;;;;;;;9.80;9.00;;;;;;;-144.30;29.40;80860.94;5049419;28;20203;-76
2023/06/28 08:18:40;;;;;;;10.43;9.43;;;;;;;-144.30;29.02;80858.97;5049766;28;20192;-74
2023/06/28 08:21:07;;;;;;;9.20;8.30;;;;;;;-144.30;28.39;80700.16;5049454;28;20659;-76
2023/06/28 08:23:33;;;;;;;10.07;8.68;;;;;;;-144.30;28.20;80602.88;5049269;28;20192;-75
2023/06/28 08:26:01;;;;;;;8.50;7.68;;;;;;;-144.30;27.88;80549.28;5049826;28;20204;-74
2023/06/28 08:28:28;;;;;;;11.57;8.60;;;;;;;-144.30;27.50;80386.50;5052852;28;20250;-74
2023/06/28 08:30:55;;;;;;;12.52;7.88;;;;;;;-144.30;27.35;80275.34;5053349;28;20718;-74
2023/06/28 08:33:23;;;;;;;8.07;7.45;;;;;;;-144.30;27.55;80541.31;5053449;28;20290;-74
2023/06/28 08:35:51;;;;;;;8.27;7.72;;;;;;;-144.30;27.83;80581.03;5053389;28;20196;-74
2023/06/28 08:38:18;;;;;;;8.65;7.95;;;;;;;-144.30;27.91;80918.53;5053018;28;20192;-75
2023/06/28 08:40:45;;;;;;;8.68;7.97;;;;;;;-144.30;27.96;80696.16;5052949;28;20496;-76
2023/06/28 08:43:16;;;;;;;10.55;7.57;;;;;;;-144.30;27.76;80831.16;5052981;28;20204;-75
2023/06/28 08:45:44;;;;;;;11.43;7.95;;;;;;;-144.30;28.19;80829.19;5053151;28;20235;-75
2023/06/28 08:48:12;;;;;;;9.98;9.05;;;;;;;-144.30;28.17;80809.34;5053006;28;20277;-75
2023/06/28 08:50:41;;;;;;;8.48;7.78;;;;;;;-144.30;28.14;80952.28;5053206;28;20227;-76
2023/06/28 08:53:12;;;;;;;8.15;7.55;;;;;;;-144.30;28.24;81379.16;5052856;28;20200;-74
2023/06/28 08:55:40;;;;;;;7.80;7.40;;;;;;;-144.30;28.25;80827.19;5053035;28;20624;-76
2023/06/28 08:58:07;;;;;;;10.80;7.40;;;;;;;-144.30;28.42;81021.75;5052338;28;20195;-75
2023/06/28 09:00:34;;;;;;;10.43;8.20;;;;;;;-144.30;28.29;81057.50;5052382;28;20203;-75
2023/06/28 09:03:02;;;;;;;8.57;7.88;;;;;;;-144.30;27.01;81442.69;5051993;28;20207;-76
2023/06/28 09:05:30;;;;;;;7.40;7.00;;;;;;;-144.30;27.16;81182.59;5052380;28;20222;-76
2023/06/28 09:07:58;;;;;;;7.38;6.88;;;;;;;-144.30;27.45;81164.72;5053001;28;20202;-75
2023/06/28 09:10:26;;;;;;;7.85;7.40;;;;;;;-144.30;27.57;81212.38;5052574;28;20215;-76
2023/06/28 09:12:53;;;;;;;10.20;7.15;;;;;;;-144.30;28.30;81283.84;5052242;28;20196;-75
2023/06/28 09:15:23;;;;;;;8.90;8.30;;;;;;;-144.30;28.18;81262.00;5051696;28;20203;-75
2023/06/28 09:17:50;;;;;;;8.27;7.78;;;;;;;-144.30;28.68;81236.19;5052964;28;20192;-75
2023/06/28 09:20:17;;;;;;;8.02;7.47;;;;;;;-144.30;27.71;81264.00;5052059;28;20196;-75
2023/06/28 09:22:55;;;;;;;7.93;7.43;;;;;;;-144.30;28.08;81291.78;5052192;28;20569;-74
2023/06/28 09:25:22;;;;;;;12.13;7.70;;;;;;;-144.30;27.59;81260.03;5051886;28;20200;-74
2023/06/28 09:27:51;;;;;;;6.60;6.10;;;;;;;-144.30;27.81;81279.88;5052057;28;20206;-74
2023/06/28 09:30:18;;;;;;;6.82;6.43;;;;;;;-144.30;27.36;81256.06;5051728;28;20776;-75
2023/06/28 09:32:50;;;;;;;6.40;6.00;;;;;;;-144.30;26.72;81260.03;5052055;28;20269;-75
2023/06/28 09:35:17;;;;;;;6.78;6.28;;;;;;;-144.30;27.06;81248.13;5051532;28;20584;-74
2023/06/28 09:37:44;;;;;;;7.55;6.95;;;;;;;-144.30;27.96;81200.47;5051383;28;20681;-74
2023/06/28 09:40:16;;;;;;;7.65;6.90;;;;;;;-144.30;27.79;81202.44;5051263;28;20282;-75
2023/06/28 09:42:45;;;;;;;8.82;7.18;;;;;;;-144.30;28.18;81186.56;5051183;28;20208;-74
2023/06/28 09:45:24;;;;;;;8.10;7.50;;;;;;;-144.30;28.08;81254.06;5051154;28;20229;-75
2023/06/28 09:47:56;;;;;;;9.90;8.00;;;;;;;-144.30;27.96;81287.81;5051541;28;20250;-74
2023/06/28 09:50:35;;;;;;;8.18;7.35;;;;;;;-144.30;27.82;81327.53;5050982;28;20230;-74
2023/06/28 09:53:02;;;;;;;8.02;7.38;;;;;;;-144.30;28.19;81347.38;5051557;28;20202;-75
2023/06/28 09:55:29;;;;;;;7.22;6.78;;;;;;;-144.30;28.15;81412.91;5050920;28;20228;-75
2023/06/28 09:57:57;;;;;;;7.63;7.03;;;;;;;-144.30;28.52;81538.00;5051299;28;20197;-74
2023/06/28 10:00:29;;;;;;;7.70;7.05;;;;;;;-144.30;28.78;81603.53;5051205;28;20673;-75
2023/06/28 10:02:58;;;;;;;8.07;7.47;;;;;;;-144.30;28.57;81456.59;5051535;28;20200;-76
2023/06/28 10:05:26;;;;;;;9.50;7.03;;;;;;;-144.30;28.52;81395.03;5051133;28;20192;-74
2023/06/28 10:07:53;;;;;;;7.10;6.70;;;;;;;-144.30;28.42;81462.56;5051242;28;20577;-76
2023/06/28 10:10:21;;;;;;;7.97;7.50;;;;;;;-144.30;28.33;81438.72;5050398;28;20224;-75
2023/06/28 10:12:49;;;;;;;8.93;8.00;;;;;;;-144.30;29.17;81478.44;5051118;28;20200;-76
2023/06/28 10:15:22;;;;;;;7.70;7.10;;;;;;;-144.30;28.93;81514.19;5051214;28;20676;-74
2023/06/28 10:17:51;;;;;;;7.40;6.80;;;;;;;-144.30;28.89;81557.88;5051455;28;20196;-74
2023/06/28 10:20:19;;;;;;;8.45;7.72;;;;;;;-144.30;29.06;81657.16;5050908;28;20265;-75
2023/06/28 10:22:46;;;;;;;7.22;6.82;;;;;;;-144.30;29.11;81671.06;5051188;28;20573;-75
2023/06/28 10:25:13;;;;;;;8.95;8.10;;;;;;;-144.30;29.93;81679.00;5050642;28;20557;-75
2023/06/28 10:27:41;;;;;;;9.88;8.98;;;;;;;-144.30;29.43;81726.66;5051016;28;20207;-74
2023/06/28 10:30:09;;;;;;;8.57;7.97;;;;;;;-144.30;29.33;81661.13;5051045;28;20261;-75
2023/06/28 10:32:37;;;;;;;8.70;8.00;;;;;;;-144.30;30.01;81716.72;5051344;28;20200;-75
2023/06/28 10:35:08;;;;;;;9.15;8.55;;;;;;;-144.30;29.94;81798.16;5051068;28;20203;-74
2023/06/28 10:37:35;;;;;;;8.27;7.72;;;;;;;-144.30;29.84;81802.13;5051095;28;20189;-75
2023/06/28 10:40:04;;;;;;;7.93;7.35;;;;;;;-144.30;29.96;81788.22;5051007;28;20204;-75
2023/06/28 10:42:39;;;;;;;11.45;9.43;;;;;;;-144.30;29.86;81744.53;5050864;28;20212;-75
2023/06/28 10:45:08;;;;;;;8.60;7.75;;;;;;;-144.30;29.51;81730.63;5051395;28;20200;-75
2023/06/28 10:47:35;;;;;;;8.02;7.43;;;;;;;-144.30;29.44;81722.69;5050416;28;20680;-75
2023/06/28 10:50:09;;;;;;;7.03;6.63;;;;;;;-144.30;30.02;81764.38;5049253;28;20288;-75
2023/06/28 10:52:36;;;;;;;7.43;6.72;;;;;;;-144.30;29.43;81802.13;5050422;28;20258;-75
2023/06/28 10:55:04;;;;;;;7.95;7.35;;;;;;;-144.30;29.53;81879.56;5050614;28;20224;-75
2023/06/28 10:57:38;;;;;;;8.00;7.50;;;;;;;-144.30;29.96;81774.31;5050093;28;20200;-75
2023/06/28 11:00:09;;;;;;;7.43;7.03;;;;;;;-144.30;29.96;81821.97;5050483;28;20622;-74
2023/06/28 11:03:00;;;;;;;7.75;7.10;;;;;;;-144.30;30.01;81907.38;5050528;28;20204;-74
2023/06/28 11:05:52;;;;;;;7.28;6.82;;;;;;;-144.30;29.92;81901.41;5050310;28;20199;-75
2023/06/28 11:08:20;;;;;;;8.10;7.20;;;;;;;-144.30;30.01;81861.69;5050350;28;20638;-75
2023/06/28 11:10:48;;;;;;;7.60;7.10;;;;;;;-144.30;30.31;81851.78;5050052;28;20623;-75
2023/06/28 11:13:16;;;;;;;8.15;7.65;;;;;;;-144.30;29.91;81800.13;5051335;28;20254;-75
2023/06/28 11:15:44;;;;;;;7.40;6.70;;;;;;;-144.30;29.82;81855.75;5052455;28;20208;-75
2023/06/28 11:18:16;;;;;;;8.50;7.85;;;;;;;-144.30;29.81;81827.94;5050085;28;20569;-74